createdAt,value
2023-01-24T00:00:52.869Z,20.58
2023-01-24T00:03:20.054Z,19.35
2023-01-24T00:05:48.421Z,21.35
2023-01-24T00:08:19.533Z,22.02
2023-01-24T00:10:47.032Z,21.38
2023-01-24T00:13:14.997Z,20.65
2023-01-24T00:15:42.197Z,21.13
2023-01-24T00:18:09.862Z,22.42
2023-01-24T00:20:37.059Z,20.33
2023-01-24T00:23:04.000Z,22.55
2023-01-24T00:25:31.274Z,21.33
2023-01-24T00:27:58.258Z,22.42
2023-01-24T00:30:26.365Z,22.35
2023-01-24T00:32:53.333Z,22.08
2023-01-24T00:35:20.529Z,20.48
2023-01-24T00:37:47.736Z,20.88
2023-01-24T00:40:14.726Z,22.90
2023-01-24T00:42:42.113Z,23.05
2023-01-24T00:45:09.330Z,21.95
2023-01-24T00:47:36.443Z,20.73
2023-01-24T00:50:03.495Z,22.42
2023-01-24T00:52:30.880Z,22.25
2023-01-24T00:54:58.012Z,23.25
2023-01-24T00:57:25.664Z,22.38
2023-01-24T00:59:52.564Z,22.33
2023-01-24T01:02:19.670Z,22.05
2023-01-24T01:04:47.284Z,22.23
2023-01-24T01:07:14.978Z,21.70
2023-01-24T01:09:42.992Z,22.58
2023-01-24T01:12:10.364Z,21.80
2023-01-24T01:14:37.276Z,22.55
2023-01-24T01:17:04.227Z,23.17
2023-01-24T01:19:31.149Z,22.45
2023-01-24T01:21:58.368Z,21.23
2023-01-24T01:24:26.161Z,20.75
2023-01-24T01:26:53.119Z,20.38
2023-01-24T01:29:20.101Z,21.77
2023-01-24T01:31:47.119Z,20.05
2023-01-24T01:34:14.305Z,21.90
2023-01-24T01:36:41.255Z,19.75
2023-01-24T01:39:09.014Z,20.92
2023-01-24T01:41:36.142Z,21.08
2023-01-24T01:44:41.568Z,22.60
2023-01-24T01:47:29.414Z,21.85
2023-01-24T01:50:20.119Z,20.33
2023-01-24T01:52:47.529Z,22.45
2023-01-24T01:55:17.689Z,20.20
2023-01-24T01:57:46.484Z,22.58
2023-01-24T02:00:22.335Z,21.38
2023-01-24T02:03:16.132Z,21.05
2023-01-24T02:05:43.616Z,19.30
2023-01-24T02:08:13.564Z,20.33
2023-01-24T02:11:00.468Z,20.25
2023-01-24T02:13:27.980Z,19.35
2023-01-24T02:16:04.300Z,20.20
2023-01-24T02:18:33.191Z,18.65
2023-01-24T02:21:00.302Z,18.90
2023-01-24T02:24:03.591Z,19.90
2023-01-24T02:26:31.239Z,17.35
2023-01-24T02:29:06.343Z,18.30
2023-01-24T02:31:56.133Z,18.15
2023-01-24T02:34:24.723Z,17.83
2023-01-24T02:36:58.209Z,18.35
2023-01-24T02:39:33.550Z,19.38
2023-01-24T02:42:27.504Z,17.83
2023-01-24T02:45:09.710Z,17.23
2023-01-24T02:47:46.398Z,18.30
2023-01-24T02:50:13.906Z,17.15
2023-01-24T02:52:59.537Z,19.40
2023-01-24T02:55:27.477Z,18.77
2023-01-24T02:58:08.613Z,18.27
2023-01-24T03:00:40.709Z,18.65
2023-01-24T03:03:09.774Z,17.85
2023-01-24T03:05:55.969Z,17.73
2023-01-24T03:08:27.724Z,17.52
2023-01-24T03:10:57.326Z,17.95
2023-01-24T03:13:44.867Z,18.75
2023-01-24T03:16:33.091Z,17.77
2023-01-24T03:19:19.059Z,18.02
2023-01-24T03:22:05.365Z,17.30
2023-01-24T03:24:50.768Z,18.50
2023-01-24T03:27:36.736Z,18.58
2023-01-24T03:30:23.459Z,17.67
2023-01-24T03:33:08.942Z,16.52
2023-01-24T03:35:36.690Z,18.17
2023-01-24T03:38:22.356Z,16.67
2023-01-24T03:40:53.595Z,17.77
2023-01-24T03:43:20.959Z,17.52
2023-01-24T03:45:53.501Z,17.25
2023-01-24T03:48:37.480Z,16.85
2023-01-24T03:51:24.885Z,16.65
2023-01-24T03:53:52.238Z,17.60
2023-01-24T03:56:21.124Z,16.77
2023-01-24T03:58:54.729Z,16.85
2023-01-24T04:01:23.757Z,16.35
2023-01-24T04:03:59.767Z,16.00
2023-01-24T04:06:26.895Z,16.25
2023-01-24T04:08:53.871Z,17.77
2023-01-24T04:11:23.118Z,15.38
2023-01-24T04:13:55.091Z,17.48
2023-01-24T04:16:22.152Z,15.45
2023-01-24T04:19:00.378Z,15.93
2023-01-24T04:21:27.876Z,14.88
2023-01-24T04:23:55.234Z,16.85
2023-01-24T04:26:22.740Z,15.77
2023-01-24T04:28:51.662Z,15.52
2023-01-24T04:31:19.133Z,15.60
2023-01-24T04:34:06.414Z,16.40
2023-01-24T04:36:35.793Z,15.93
2023-01-24T04:39:04.576Z,15.63
2023-01-24T04:41:38.812Z,16.58
2023-01-24T04:44:05.897Z,15.70
2023-01-24T04:46:33.022Z,17.17
2023-01-24T04:49:00.804Z,16.33
2023-01-24T04:51:37.732Z,16.23
2023-01-24T04:54:12.670Z,16.52
2023-01-24T04:56:40.716Z,15.15
2023-01-24T04:59:07.875Z,16.77
2023-01-24T05:01:36.266Z,14.77
2023-01-24T05:04:10.491Z,15.82
2023-01-24T05:06:37.830Z,15.30
2023-01-24T05:09:05.112Z,14.98
2023-01-24T05:11:51.803Z,15.68
2023-01-24T05:14:18.949Z,15.90
2023-01-24T05:16:46.157Z,16.10
2023-01-24T05:19:13.235Z,16.23
2023-01-24T05:21:40.320Z,15.40
2023-01-24T05:24:09.232Z,15.93
2023-01-24T05:26:36.487Z,15.55
2023-01-24T05:29:03.461Z,15.65
2023-01-24T05:31:31.360Z,15.88
2023-01-24T05:33:59.342Z,16.10
2023-01-24T05:36:26.487Z,16.20
2023-01-24T05:38:54.431Z,15.13
2023-01-24T05:41:22.126Z,15.75
2023-01-24T05:43:52.545Z,14.43
2023-01-24T05:46:24.554Z,15.23
2023-01-24T05:49:11.872Z,16.27
2023-01-24T05:51:39.350Z,14.57
2023-01-24T05:54:06.794Z,16.13
2023-01-24T05:56:56.941Z,15.50
2023-01-24T05:59:26.467Z,16.33
2023-01-24T06:01:53.525Z,16.08
2023-01-24T06:04:21.645Z,16.05
2023-01-24T06:06:49.876Z,16.10
2023-01-24T06:09:16.867Z,17.42
2023-01-24T06:11:44.692Z,17.38
2023-01-24T06:14:16.828Z,18.25
2023-01-24T06:16:45.783Z,18.90
2023-01-24T06:19:15.454Z,19.65
2023-01-24T06:21:52.988Z,18.40
2023-01-24T06:24:27.918Z,19.02
2023-01-24T06:27:02.168Z,17.67
2023-01-24T06:29:29.514Z,17.92
2023-01-24T06:32:42.068Z,18.73
2023-01-24T06:35:17.640Z,18.55
2023-01-24T06:37:52.625Z,18.17
2023-01-24T06:40:23.931Z,17.75
2023-01-24T06:42:52.212Z,19.30
2023-01-24T06:45:19.739Z,19.25
2023-01-24T06:47:46.899Z,19.10
2023-01-24T06:50:22.167Z,19.75
2023-01-24T06:52:50.959Z,19.45
2023-01-24T06:55:18.247Z,18.48
2023-01-24T06:57:47.643Z,19.60
2023-01-24T07:00:15.441Z,19.52
2023-01-24T07:02:42.432Z,19.45
2023-01-24T07:05:09.747Z,19.13
2023-01-24T07:07:36.652Z,18.95
2023-01-24T07:10:04.133Z,19.33
2023-01-24T07:12:31.068Z,20.15
2023-01-24T07:14:57.979Z,20.10
2023-01-24T07:17:25.263Z,19.13
2023-01-24T07:19:52.370Z,19.10
2023-01-24T07:22:19.621Z,20.13
2023-01-24T07:24:48.136Z,20.30
2023-01-24T07:27:15.577Z,20.85
2023-01-24T07:29:42.470Z,21.38
2023-01-24T07:32:11.213Z,22.45
2023-01-24T07:34:38.879Z,22.25
2023-01-24T07:37:08.017Z,21.77
2023-01-24T07:39:35.152Z,20.08
2023-01-24T07:42:02.190Z,19.85
2023-01-24T07:44:29.079Z,20.45
2023-01-24T07:46:56.228Z,21.30
2023-01-24T07:49:23.236Z,19.42
2023-01-24T07:51:50.303Z,20.48
2023-01-24T07:54:19.917Z,22.83
2023-01-24T07:56:47.453Z,21.58
2023-01-24T07:59:15.103Z,20.50
2023-01-24T08:01:42.235Z,21.10
2023-01-24T08:04:09.892Z,22.95
2023-01-24T08:06:37.126Z,21.45
2023-01-24T08:09:04.153Z,21.27
2023-01-24T08:11:31.062Z,20.95
2023-01-24T08:13:58.090Z,20.63
2023-01-24T08:16:27.005Z,20.65
2023-01-24T08:18:54.210Z,21.50
2023-01-24T08:21:21.186Z,20.67
2023-01-24T08:23:48.226Z,20.23
2023-01-24T08:26:15.210Z,19.90
2023-01-24T08:28:42.152Z,20.67
2023-01-24T08:31:09.140Z,20.40
2023-01-24T08:33:38.976Z,20.13
2023-01-24T08:36:06.637Z,19.23
2023-01-24T08:38:33.617Z,19.70
2023-01-24T08:41:04.099Z,19.65
2023-01-24T08:43:31.430Z,20.17
2023-01-24T08:45:58.671Z,20.63
2023-01-24T08:48:25.748Z,21.13
2023-01-24T08:50:52.686Z,20.85
2023-01-24T08:53:19.790Z,19.70
2023-01-24T08:55:50.513Z,21.48
2023-01-24T08:58:17.705Z,20.75
2023-01-24T09:00:44.680Z,20.75
2023-01-24T09:03:13.857Z,21.08
2023-01-24T09:05:40.874Z,22.02
2023-01-24T09:08:08.038Z,21.60
2023-01-24T09:10:35.400Z,21.65
2023-01-24T09:13:03.757Z,22.45
2023-01-24T09:15:31.653Z,20.98
2023-01-24T09:18:03.411Z,21.35
2023-01-24T09:20:30.357Z,21.88
2023-01-24T09:22:57.358Z,19.95
2023-01-24T09:25:24.754Z,19.88
2023-01-24T09:27:55.888Z,19.35
2023-01-24T09:30:24.337Z,17.00
2023-01-24T09:32:51.774Z,18.73
2023-01-24T09:35:18.800Z,18.90
2023-01-24T09:37:46.063Z,19.02
2023-01-24T09:40:21.774Z,18.58
2023-01-24T09:43:30.695Z,18.08
2023-01-24T09:46:21.688Z,18.58
2023-01-24T09:48:53.944Z,19.38
2023-01-24T09:51:25.674Z,17.95
2023-01-24T09:53:56.130Z,19.25
2023-01-24T09:56:31.589Z,18.60
2023-01-24T09:59:16.819Z,18.73
2023-01-24T10:01:44.251Z,18.38
2023-01-24T10:04:30.880Z,18.88
2023-01-24T10:07:06.788Z,19.83
2023-01-24T10:10:09.799Z,19.80
2023-01-24T10:12:46.915Z,20.73
2023-01-24T10:15:35.266Z,19.23
2023-01-24T10:18:35.919Z,18.67
2023-01-24T10:21:24.474Z,18.52
2023-01-24T10:23:58.694Z,17.50
2023-01-24T10:26:52.227Z,16.75
2023-01-24T10:29:22.635Z,15.15
2023-01-24T10:31:52.573Z,16.55
2023-01-24T10:34:42.981Z,15.25
2023-01-24T10:37:13.157Z,14.70
2023-01-24T10:39:40.129Z,14.18
2023-01-24T10:42:20.385Z,14.10
2023-01-24T10:44:48.462Z,13.75
2023-01-24T10:47:27.688Z,14.85
2023-01-24T10:50:05.238Z,14.25
2023-01-24T10:52:33.137Z,14.02
2023-01-24T10:55:02.800Z,13.55
2023-01-24T10:57:38.569Z,13.57
2023-01-24T11:00:35.153Z,12.85
2023-01-24T11:03:05.690Z,12.13
2023-01-24T11:05:50.979Z,12.68
2023-01-24T11:08:22.120Z,12.43
2023-01-24T11:10:53.831Z,12.00
2023-01-24T11:13:44.860Z,12.18
2023-01-24T11:16:21.678Z,12.50
2023-01-24T11:19:00.742Z,12.27
2023-01-24T11:21:30.116Z,12.77
2023-01-24T11:24:16.418Z,12.95
2023-01-24T11:26:54.997Z,12.80
2023-01-24T11:29:23.109Z,13.35
2023-01-24T11:31:54.213Z,12.23
2023-01-24T11:34:36.004Z,12.65
2023-01-24T11:37:13.061Z,12.13
2023-01-24T11:39:57.928Z,12.38
2023-01-24T11:42:58.705Z,13.15
2023-01-24T11:45:50.312Z,12.13
2023-01-24T11:48:20.971Z,12.45
2023-01-24T11:51:12.836Z,13.70
2023-01-24T11:54:13.713Z,12.50
2023-01-24T11:56:47.134Z,12.13
2023-01-24T11:59:34.944Z,11.90
2023-01-24T12:02:21.720Z,12.20
2023-01-24T12:04:58.770Z,14.25
2023-01-24T12:07:44.184Z,14.15
2023-01-24T12:10:23.031Z,15.25
2023-01-24T12:13:16.244Z,14.27
2023-01-24T12:16:26.972Z,13.80
2023-01-24T12:19:13.480Z,13.50
2023-01-24T12:21:40.419Z,12.70
2023-01-24T12:24:19.727Z,12.02
2023-01-24T12:26:51.756Z,11.73
2023-01-24T12:29:37.185Z,12.40
2023-01-24T12:32:16.733Z,12.93
2023-01-24T12:35:05.114Z,12.57
2023-01-24T12:37:49.891Z,12.27
2023-01-24T12:40:23.449Z,12.68
2023-01-24T12:42:59.181Z,12.25
2023-01-24T12:45:46.580Z,12.25
2023-01-24T12:48:38.464Z,12.13
2023-01-24T12:51:13.198Z,12.95
2023-01-24T12:53:50.978Z,12.63
2023-01-24T12:56:33.330Z,11.35
2023-01-24T12:59:00.713Z,12.15
2023-01-24T13:01:27.589Z,17.23
2023-01-24T13:04:12.637Z,13.48
2023-01-24T13:06:51.490Z,12.60
2023-01-24T13:09:27.267Z,13.07
2023-01-24T13:11:57.003Z,13.57
2023-01-24T13:14:39.063Z,13.05
2023-01-24T13:17:12.847Z,12.60
2023-01-24T13:20:08.874Z,12.30
2023-01-24T13:23:12.905Z,13.15
2023-01-24T13:25:54.877Z,12.90
2023-01-24T13:28:36.635Z,13.40
2023-01-24T13:31:21.365Z,13.50
2023-01-24T13:34:05.555Z,13.77
2023-01-24T13:36:36.078Z,12.95
2023-01-24T13:39:09.445Z,13.57
2023-01-24T13:41:40.001Z,13.23
2023-01-24T13:44:25.254Z,14.77
2023-01-24T13:46:55.215Z,16.65
2023-01-24T13:49:38.000Z,13.98
2023-01-24T13:52:36.616Z,14.57
2023-01-24T13:55:23.835Z,15.27
2023-01-24T13:58:10.908Z,13.82
2023-01-24T14:00:57.692Z,13.98
2023-01-24T14:03:29.576Z,15.90
2023-01-24T14:06:14.479Z,14.15
2023-01-24T14:08:45.624Z,13.60
2023-01-24T14:11:25.971Z,14.05
2023-01-24T14:14:23.196Z,14.35
2023-01-24T14:16:50.202Z,14.45
2023-01-24T14:19:32.370Z,14.55
2023-01-24T14:22:19.533Z,13.95
2023-01-24T14:25:26.945Z,14.85
2023-01-24T14:28:01.909Z,14.73
2023-01-24T14:30:40.096Z,14.98
2023-01-24T14:33:44.894Z,15.65
2023-01-24T14:36:41.345Z,16.05
2023-01-24T14:39:25.376Z,14.98
2023-01-24T14:41:56.276Z,14.20
2023-01-24T14:44:25.089Z,14.30
2023-01-24T14:47:00.647Z,14.15
2023-01-24T14:49:44.586Z,14.43
2023-01-24T14:52:22.553Z,14.32
2023-01-24T14:55:01.521Z,14.90
2023-01-24T14:57:33.520Z,14.55
2023-01-24T15:00:08.888Z,14.65
2023-01-24T15:02:37.164Z,15.25
2023-01-24T15:05:23.251Z,14.60
2023-01-24T15:07:50.498Z,14.07
2023-01-24T15:10:22.429Z,14.25
2023-01-24T15:12:57.003Z,15.32
2023-01-24T15:15:25.428Z,14.55
2023-01-24T15:17:59.971Z,15.35
2023-01-24T15:20:29.408Z,14.30
2023-01-24T15:22:59.674Z,14.07
2023-01-24T15:25:32.468Z,13.48
2023-01-24T15:28:19.607Z,13.25
2023-01-24T15:31:00.376Z,14.55
2023-01-24T15:33:41.824Z,15.32
2023-01-24T15:36:38.333Z,13.90
2023-01-24T15:39:14.494Z,15.23
2023-01-24T15:42:01.216Z,14.23
2023-01-24T15:44:28.820Z,13.93
2023-01-24T15:47:21.353Z,14.90
2023-01-24T15:50:02.762Z,13.82
2023-01-24T15:52:29.937Z,14.13
2023-01-24T15:55:00.761Z,13.48
2023-01-24T15:57:33.124Z,14.20
2023-01-24T16:00:02.313Z,13.27
2023-01-24T16:02:36.709Z,14.45
2023-01-24T16:05:13.193Z,14.38
2023-01-24T16:07:40.143Z,13.80
2023-01-24T16:10:07.588Z,13.60
2023-01-24T16:12:35.581Z,13.60
2023-01-24T16:15:09.198Z,14.07
2023-01-24T16:17:37.429Z,14.10
2023-01-24T16:20:11.844Z,13.02
2023-01-24T16:22:39.639Z,12.85
2023-01-24T16:25:11.244Z,12.45
2023-01-24T16:27:41.782Z,12.32
2023-01-24T16:30:28.059Z,12.75
2023-01-24T16:32:56.048Z,12.60
2023-01-24T16:35:23.635Z,12.77
2023-01-24T16:37:50.730Z,11.82
2023-01-24T16:40:18.945Z,12.30
2023-01-24T16:42:47.895Z,11.65
2023-01-24T16:45:17.609Z,12.30
2023-01-24T16:47:45.048Z,12.35
2023-01-24T16:50:13.307Z,11.25
2023-01-24T16:52:40.756Z,10.75
2023-01-24T16:55:09.496Z,11.43
2023-01-24T16:57:36.496Z,11.02
2023-01-24T17:00:07.773Z,12.25
2023-01-24T17:02:35.076Z,11.65
2023-01-24T17:05:04.429Z,11.48
2023-01-24T17:07:31.638Z,10.73
2023-01-24T17:09:58.554Z,10.68
2023-01-24T17:12:25.466Z,10.15
2023-01-24T17:14:52.437Z,9.48
2023-01-24T17:17:19.459Z,11.98
2023-01-24T17:19:46.896Z,11.18
2023-01-24T17:22:14.234Z,11.20
2023-01-24T17:24:41.235Z,11.20
2023-01-24T17:27:08.217Z,11.27
2023-01-24T17:29:35.161Z,12.20
2023-01-24T17:32:02.415Z,12.55
2023-01-24T17:34:29.747Z,11.98
2023-01-24T17:36:56.694Z,11.75
2023-01-24T17:39:23.666Z,13.07
2023-01-24T17:41:51.280Z,11.82
2023-01-24T17:44:18.546Z,11.57
2023-01-24T17:46:46.109Z,12.63
2023-01-24T17:49:13.367Z,12.05
2023-01-24T17:51:42.488Z,11.38
2023-01-24T17:54:12.728Z,11.77
2023-01-24T17:56:40.287Z,11.85
2023-01-24T17:59:07.259Z,12.90
2023-01-24T18:01:34.418Z,12.65
2023-01-24T18:04:01.952Z,13.48
2023-01-24T18:06:29.111Z,12.85
2023-01-24T18:08:56.153Z,12.75
2023-01-24T18:11:23.193Z,12.75
2023-01-24T18:13:50.210Z,12.52
2023-01-24T18:16:20.885Z,13.02
2023-01-24T18:18:49.129Z,13.18
2023-01-24T18:21:20.002Z,12.15
2023-01-24T18:23:51.616Z,13.45
2023-01-24T18:26:19.019Z,12.52
2023-01-24T18:28:46.238Z,12.95
2023-01-24T18:31:14.180Z,13.07
2023-01-24T18:33:41.315Z,12.88
2023-01-24T18:36:24.744Z,11.70
2023-01-24T18:38:52.811Z,13.25
2023-01-24T18:41:20.305Z,12.30
2023-01-24T18:43:47.584Z,12.68
2023-01-24T18:46:14.948Z,13.25
2023-01-24T18:48:43.977Z,12.85
2023-01-24T18:51:16.383Z,13.75
2023-01-24T18:53:44.095Z,17.25
2023-01-24T18:56:11.805Z,17.23
2023-01-24T18:58:39.812Z,13.75
2023-01-24T19:03:42.327Z,14.45
2023-01-24T19:06:10.748Z,15.30
2023-01-24T19:08:48.700Z,15.25
2023-01-24T19:11:24.352Z,14.63
2023-01-24T19:13:52.599Z,14.10
2023-01-24T19:16:19.577Z,15.38
2023-01-24T19:18:47.335Z,15.05
2023-01-24T19:21:18.038Z,14.60
2023-01-24T19:23:47.965Z,13.60
2023-01-24T19:26:17.681Z,14.57
2023-01-24T19:28:44.610Z,14.82
2023-01-24T19:31:12.443Z,14.75
2023-01-24T19:33:39.552Z,14.77
2023-01-24T19:36:08.552Z,14.90
2023-01-24T19:38:36.383Z,14.32
2023-01-24T19:41:04.886Z,15.32
2023-01-24T19:43:33.308Z,14.30
2023-01-24T19:46:10.514Z,15.25
2023-01-24T19:48:39.658Z,15.63
2023-01-24T19:51:09.158Z,15.57
2023-01-24T19:53:36.959Z,15.98
2023-01-24T19:56:06.343Z,15.00
2023-01-24T19:58:34.007Z,16.58
2023-01-24T20:01:08.024Z,16.63
2023-01-24T20:03:37.391Z,16.95
2023-01-24T20:06:12.841Z,16.63
2023-01-24T20:08:45.271Z,16.38
2023-01-24T20:11:13.068Z,17.10
2023-01-24T20:13:40.744Z,17.17
2023-01-24T20:16:19.200Z,16.98
2023-01-24T20:18:57.286Z,17.92
2023-01-24T20:21:26.437Z,16.88
2023-01-24T20:23:55.121Z,17.33
2023-01-24T20:26:22.595Z,16.83
2023-01-24T20:28:49.987Z,16.65
2023-01-24T20:31:17.166Z,17.52
2023-01-24T20:33:44.211Z,17.02
2023-01-24T20:36:12.947Z,18.13
2023-01-24T20:38:41.133Z,17.33
2023-01-24T20:41:16.336Z,16.30
2023-01-24T20:43:44.485Z,16.58
2023-01-24T20:46:22.742Z,15.73
2023-01-24T20:48:52.007Z,16.05
2023-01-24T20:51:19.678Z,16.15
2023-01-24T20:53:47.073Z,16.10
2023-01-24T20:56:18.337Z,15.95
2023-01-24T20:58:45.416Z,17.80
2023-01-24T21:01:16.749Z,16.08
2023-01-24T21:03:44.186Z,16.33
2023-01-24T21:06:14.275Z,16.35
2023-01-24T21:08:42.857Z,15.18
2023-01-24T21:11:18.456Z,16.77
2023-01-24T21:13:51.073Z,16.52
2023-01-24T21:16:18.344Z,15.98
2023-01-24T21:18:51.043Z,16.45
2023-01-24T21:21:19.531Z,16.60
2023-01-24T21:23:47.233Z,15.90
2023-01-24T21:26:16.535Z,16.60
2023-01-24T21:28:49.779Z,16.60
2023-01-24T21:31:20.036Z,15.20
2023-01-24T21:33:49.100Z,16.10
2023-01-24T21:36:18.828Z,17.45
2023-01-24T21:38:46.759Z,18.33
2023-01-24T21:41:40.241Z,19.52
2023-01-24T21:44:08.515Z,20.50
2023-01-24T21:46:36.303Z,17.00
2023-01-24T21:49:05.994Z,17.65
2023-01-24T21:51:50.656Z,17.65
2023-01-24T21:54:23.286Z,17.27
2023-01-24T21:57:28.152Z,16.55
2023-01-24T21:59:58.278Z,16.45
2023-01-24T22:02:30.564Z,17.65
2023-01-24T22:04:58.700Z,17.60
2023-01-24T22:07:28.043Z,18.20
2023-01-24T22:09:57.940Z,18.25
2023-01-24T22:12:25.214Z,18.73
2023-01-24T22:14:52.469Z,19.50
2023-01-24T22:17:21.733Z,16.52
2023-01-24T22:19:57.129Z,17.13
2023-01-24T22:22:43.819Z,19.17
2023-01-24T22:25:13.648Z,18.38
2023-01-24T22:27:41.255Z,17.27
2023-01-24T22:30:19.395Z,18.58
2023-01-24T22:32:47.312Z,18.15
2023-01-24T22:35:23.208Z,17.70
2023-01-24T22:37:58.998Z,17.23
2023-01-24T22:40:27.422Z,18.58
2023-01-24T22:42:57.192Z,18.83
2023-01-24T22:45:26.069Z,18.77
2023-01-24T22:47:53.089Z,17.52
2023-01-24T22:50:20.755Z,17.88
2023-01-24T22:52:48.632Z,17.67
2023-01-24T22:55:16.597Z,17.60
2023-01-24T22:57:43.580Z,18.02
2023-01-24T23:00:12.145Z,18.40
2023-01-24T23:02:39.375Z,18.60
2023-01-24T23:05:06.971Z,18.55
2023-01-24T23:07:34.409Z,19.40
2023-01-24T23:10:01.376Z,18.95
2023-01-24T23:12:46.881Z,19.50
2023-01-24T23:15:32.936Z,19.42
2023-01-24T23:18:04.077Z,20.40
2023-01-24T23:20:49.471Z,20.30
2023-01-24T23:23:16.376Z,19.25
2023-01-24T23:25:43.424Z,18.52
2023-01-24T23:28:10.552Z,16.80
2023-01-24T23:30:54.820Z,17.67
2023-01-24T23:33:21.718Z,18.17
2023-01-24T23:35:48.719Z,18.48
2023-01-24T23:38:15.732Z,18.73
2023-01-24T23:40:42.679Z,17.45
2023-01-24T23:43:12.555Z,20.30
2023-01-24T23:45:42.986Z,17.90
2023-01-24T23:48:10.766Z,18.60
2023-01-24T23:50:38.088Z,18.95
2023-01-24T23:53:05.225Z,18.15
2023-01-24T23:55:32.964Z,17.92
2023-01-24T23:58:03.463Z,17.20
